KGVE/GVE METAR and TAF weather

Enter ICAO airport designator
Station Type Date Time Source
KGVE METAR 2018/12/17 16:35 UTC NOAA

KGVE 171635Z AUTO 23006KT 10SM CLR 09/02 A2989 RMK AO1 T00890022


Station Type Date Time Source
KGVE Decoded METAR 2018/12/17 16:35 UTC NOAA

Station name not available
Dec 17, 2018 - 11:35 AM EST / 2018.12.17 1635 UTC
Wind: from the SW (230 degrees) at 7 MPH (6 KT):0
Visibility: 10 mile(s):0
Sky conditions: clear
Temperature: 48.0 F (8.9 C)
Dew Point: 36.0 F (2.2 C)
Relative Humidity: 62%
Pressure (altimeter): 29.89 in. Hg (1012 hPa)
ob: KGVE 171635Z AUTO 23006KT 10SM CLR 09/02 A2989 RMK AO1 T00890022
cycle: 16

Station Type Date Time Source
KGVE TAF UTC NOAA

Error!


Example: see airport list